createdAt,value
2017-12-29T00:00:54.121Z,87.70
2017-12-29T00:03:22.068Z,87.80
2017-12-29T00:05:49.618Z,87.80
2017-12-29T00:08:17.176Z,87.80
2017-12-29T00:10:44.731Z,87.70
2017-12-29T00:13:12.283Z,87.50
2017-12-29T00:15:39.820Z,87.50
2017-12-29T00:18:07.380Z,87.40
2017-12-29T00:20:34.907Z,87.40
2017-12-29T00:23:02.822Z,87.20
2017-12-29T00:25:30.334Z,87.10
2017-12-29T00:27:58.268Z,87.20
2017-12-29T00:30:26.228Z,87.30
2017-12-29T00:32:54.163Z,87.20
2017-12-29T00:35:21.720Z,87.20
2017-12-29T00:37:50.346Z,87.20
2017-12-29T00:40:18.664Z,87.20
2017-12-29T00:42:46.597Z,87.30
2017-12-29T00:45:14.156Z,87.50
2017-12-29T00:47:42.071Z,87.60
2017-12-29T00:50:09.826Z,87.60
2017-12-29T00:52:37.318Z,87.80
2017-12-29T00:55:04.832Z,87.70
2017-12-29T00:57:32.321Z,87.60
2017-12-29T00:59:59.858Z,87.50
2017-12-29T01:02:27.349Z,87.50
2017-12-29T01:04:54.858Z,87.50
2017-12-29T01:07:22.366Z,87.60
2017-12-29T01:09:49.883Z,87.70
2017-12-29T01:12:17.766Z,87.70
2017-12-29T01:14:45.685Z,87.60
2017-12-29T01:17:13.243Z,87.50
2017-12-29T01:19:40.746Z,87.60
2017-12-29T01:22:08.261Z,87.60
2017-12-29T01:24:35.762Z,87.50
2017-12-29T01:27:03.277Z,87.50
2017-12-29T01:29:30.772Z,87.60
2017-12-29T01:31:59.059Z,87.60
2017-12-29T01:34:26.958Z,87.70
2017-12-29T01:36:54.514Z,87.40
2017-12-29T01:39:22.009Z,87.40
2017-12-29T01:41:49.530Z,87.30
2017-12-29T01:44:17.022Z,87.50
2017-12-29T01:46:45.677Z,87.30
2017-12-29T01:49:13.573Z,87.40
2017-12-29T01:51:48.878Z,87.40
2017-12-29T01:54:16.786Z,87.50
2017-12-29T01:56:44.681Z,87.40
2017-12-29T01:59:12.210Z,87.40
2017-12-29T02:01:40.487Z,87.40
2017-12-29T02:04:08.006Z,87.30
2017-12-29T02:06:35.498Z,87.20
2017-12-29T02:09:03.409Z,87.20
2017-12-29T02:11:30.901Z,87.50
2017-12-29T02:13:58.416Z,87.40
2017-12-29T02:16:25.910Z,87.40
2017-12-29T02:18:53.419Z,87.40
2017-12-29T02:21:20.938Z,87.20
2017-12-29T02:23:48.453Z,87.20
2017-12-29T02:26:15.954Z,87.20
2017-12-29T02:28:43.880Z,87.20
2017-12-29T02:31:11.370Z,87.10
2017-12-29T02:33:39.256Z,87.10
2017-12-29T02:36:06.778Z,87.10
2017-12-29T02:38:34.666Z,87.10
2017-12-29T02:41:02.178Z,86.90
2017-12-29T02:43:30.077Z,87.00
2017-12-29T02:45:57.990Z,86.70
2017-12-29T02:48:25.486Z,86.60
2017-12-29T02:50:53.393Z,86.60
2017-12-29T02:53:20.897Z,86.70
2017-12-29T02:55:49.185Z,86.70
2017-12-29T02:58:17.072Z,86.80
2017-12-29T03:00:44.589Z,86.70
2017-12-29T03:03:12.191Z,86.70
2017-12-29T03:05:39.710Z,86.60
2017-12-29T03:08:07.598Z,86.70
2017-12-29T03:10:35.109Z,86.80
2017-12-29T03:13:02.621Z,86.70
2017-12-29T03:15:30.142Z,86.70
2017-12-29T03:17:58.030Z,86.60
2017-12-29T03:20:25.546Z,86.50
2017-12-29T03:22:53.034Z,86.60
2017-12-29T03:25:20.554Z,86.50
2017-12-29T03:27:48.049Z,86.50
2017-12-29T03:30:16.750Z,86.50
2017-12-29T03:32:44.242Z,86.50
2017-12-29T03:35:29.567Z,86.50
2017-12-29T03:37:57.070Z,86.30
2017-12-29T03:40:25.719Z,86.30
2017-12-29T03:42:53.210Z,86.30
2017-12-29T03:45:21.114Z,86.30
2017-12-29T03:47:48.603Z,86.20
2017-12-29T03:50:16.957Z,86.20
2017-12-29T03:52:44.463Z,86.30
2017-12-29T03:55:12.380Z,86.50
2017-12-29T03:57:39.878Z,86.20
2017-12-29T04:00:07.792Z,86.20
2017-12-29T04:02:35.282Z,86.20
2017-12-29T04:05:02.794Z,86.20
2017-12-29T04:07:30.689Z,86.20
2017-12-29T04:09:58.214Z,86.30
2017-12-29T04:12:25.710Z,86.70
2017-12-29T04:14:53.645Z,86.60
2017-12-29T04:17:21.547Z,86.60
2017-12-29T04:19:49.453Z,86.50
2017-12-29T04:22:19.094Z,86.30
2017-12-29T04:24:47.369Z,86.20
2017-12-29T04:27:15.772Z,86.10
2017-12-29T04:29:43.491Z,86.00
2017-12-29T04:32:11.076Z,86.10
2017-12-29T04:34:38.999Z,86.10
2017-12-29T04:37:06.498Z,86.00
2017-12-29T04:39:34.414Z,85.90
2017-12-29T04:42:02.701Z,86.00
2017-12-29T04:44:30.198Z,86.00
2017-12-29T04:46:57.722Z,85.90
2017-12-29T04:49:25.218Z,85.80
2017-12-29T04:51:52.729Z,86.00
2017-12-29T04:54:20.226Z,85.90
2017-12-29T04:56:47.746Z,86.00
2017-12-29T04:59:15.239Z,86.00
2017-12-29T05:01:43.151Z,86.00
2017-12-29T05:04:12.347Z,85.90
2017-12-29T05:06:40.630Z,85.80
2017-12-29T05:09:08.245Z,85.80
2017-12-29T05:11:36.158Z,85.80
2017-12-29T05:14:04.046Z,85.80
2017-12-29T05:16:31.561Z,85.80
2017-12-29T05:18:59.063Z,85.60
2017-12-29T05:21:26.975Z,85.70
2017-12-29T05:23:54.877Z,85.70
2017-12-29T05:26:22.391Z,85.60
2017-12-29T05:28:49.947Z,85.70
2017-12-29T05:31:17.466Z,85.70
2017-12-29T05:33:44.967Z,85.80
2017-12-29T05:36:12.493Z,85.70
2017-12-29T05:38:40.598Z,85.40
2017-12-29T05:41:08.255Z,85.50
2017-12-29T05:43:35.759Z,85.50
2017-12-29T05:46:03.681Z,85.40
2017-12-29T05:48:31.188Z,85.30
2017-12-29T05:50:58.734Z,85.30
2017-12-29T05:53:26.231Z,85.20
2017-12-29T05:55:53.754Z,85.10
2017-12-29T05:58:21.246Z,84.90
2017-12-29T06:00:49.526Z,84.80
2017-12-29T06:03:17.022Z,84.80
2017-12-29T06:05:44.543Z,84.60
2017-12-29T06:08:12.046Z,84.60
2017-12-29T06:10:39.965Z,84.60
2017-12-29T06:13:07.470Z,84.70
2017-12-29T06:15:35.390Z,84.70
2017-12-29T06:18:04.022Z,84.60
2017-12-29T06:20:31.930Z,84.80
2017-12-29T06:22:59.436Z,84.80
2017-12-29T06:25:26.963Z,84.80
2017-12-29T06:27:54.878Z,84.70
2017-12-29T06:30:23.538Z,84.80
2017-12-29T06:32:51.432Z,84.60
2017-12-29T06:35:18.945Z,84.70
2017-12-29T06:37:46.441Z,84.70
2017-12-29T06:40:13.965Z,84.70
2017-12-29T06:42:41.860Z,84.80
2017-12-29T06:45:09.470Z,84.80
2017-12-29T06:47:36.982Z,84.70
2017-12-29T06:52:33.738Z,84.60
2017-12-29T06:55:01.285Z,84.50
2017-12-29T06:57:28.792Z,84.60
2017-12-29T06:59:56.318Z,84.20
2017-12-29T07:02:23.813Z,84.30
2017-12-29T07:04:51.309Z,84.30
2017-12-29T07:07:18.826Z,84.30
2017-12-29T07:09:46.720Z,84.50
2017-12-29T07:12:14.250Z,84.30
2017-12-29T07:14:41.743Z,84.50
2017-12-29T07:17:10.018Z,84.60
2017-12-29T07:19:37.906Z,84.60
2017-12-29T07:22:05.415Z,84.60
2017-12-29T07:24:32.906Z,84.50
2017-12-29T07:27:00.410Z,84.50
2017-12-29T07:29:27.909Z,84.50
2017-12-29T07:31:55.550Z,84.40
2017-12-29T07:34:23.464Z,84.30
2017-12-29T07:36:50.987Z,84.30
2017-12-29T07:39:19.629Z,84.10
2017-12-29T07:41:47.534Z,84.30
2017-12-29T07:44:15.026Z,84.30
2017-12-29T07:46:42.546Z,84.10
2017-12-29T07:49:10.050Z,84.00
2017-12-29T07:51:38.456Z,84.00
2017-12-29T07:54:06.534Z,83.90
2017-12-29T07:56:34.059Z,83.90
2017-12-29T07:59:01.949Z,83.70
2017-12-29T08:01:30.466Z,83.50
2017-12-29T08:03:58.377Z,83.30
2017-12-29T08:06:26.642Z,83.20
2017-12-29T08:08:54.558Z,83.20
2017-12-29T08:11:22.454Z,83.40
2017-12-29T08:13:50.377Z,83.20
2017-12-29T08:16:18.262Z,83.20
2017-12-29T08:18:45.794Z,83.20
2017-12-29T08:21:14.434Z,83.20
2017-12-29T08:23:41.946Z,83.30
2017-12-29T08:26:09.453Z,83.30
2017-12-29T08:28:36.998Z,83.30
2017-12-29T08:31:04.527Z,83.30
2017-12-29T08:33:32.054Z,83.40
2017-12-29T08:35:59.565Z,83.50
2017-12-29T08:38:27.461Z,83.40
2017-12-29T08:40:55.010Z,83.30
2017-12-29T08:43:24.830Z,83.10
2017-12-29T08:45:53.107Z,83.20
2017-12-29T08:48:20.620Z,83.40
2017-12-29T08:50:48.534Z,83.50
2017-12-29T08:53:17.162Z,83.20
2017-12-29T08:55:45.074Z,83.10
2017-12-29T08:58:12.566Z,83.10
2017-12-29T09:00:40.102Z,83.00
2017-12-29T09:03:08.015Z,82.70
2017-12-29T09:05:35.595Z,82.50
2017-12-29T09:08:03.090Z,82.40
2017-12-29T09:10:31.016Z,82.00
2017-12-29T09:12:58.514Z,82.00
2017-12-29T09:15:26.035Z,81.70
2017-12-29T09:17:53.534Z,81.70
2017-12-29T09:20:21.048Z,81.40
2017-12-29T09:22:48.551Z,81.20
2017-12-29T09:25:16.245Z,80.80
2017-12-29T09:27:44.154Z,80.50
2017-12-29T09:30:11.646Z,80.20
2017-12-29T09:32:39.564Z,80.50
2017-12-29T09:35:07.063Z,79.90
2017-12-29T09:37:34.971Z,79.20
2017-12-29T09:40:02.470Z,79.80
2017-12-29T09:42:30.382Z,79.50
2017-12-29T09:44:57.883Z,79.10
2017-12-29T09:47:25.399Z,79.10
2017-12-29T09:49:52.907Z,79.20
2017-12-29T09:52:20.874Z,78.80
2017-12-29T09:54:48.798Z,78.60
2017-12-29T09:57:16.305Z,78.30
2017-12-29T09:59:44.199Z,78.10
2017-12-29T10:02:12.230Z,77.50
2017-12-29T10:04:40.110Z,77.20
2017-12-29T10:07:08.010Z,75.90
2017-12-29T10:09:35.518Z,75.70
2017-12-29T10:12:03.434Z,75.50
2017-12-29T10:14:31.329Z,74.60
2017-12-29T10:16:59.033Z,74.70
2017-12-29T10:19:26.519Z,74.10
2017-12-29T10:21:54.025Z,73.90
2017-12-29T10:24:21.531Z,73.80
2017-12-29T10:26:49.814Z,73.30
2017-12-29T10:29:17.311Z,72.50
2017-12-29T10:31:44.871Z,72.00
2017-12-29T10:34:12.774Z,71.80
2017-12-29T10:36:40.293Z,70.90
2017-12-29T10:39:08.197Z,70.30
2017-12-29T10:41:35.714Z,69.80
2017-12-29T10:44:03.267Z,69.50
2017-12-29T10:46:31.642Z,69.40
2017-12-29T10:48:59.199Z,68.60
2017-12-29T10:51:26.700Z,68.20
2017-12-29T10:53:54.230Z,68.10
2017-12-29T10:56:22.114Z,68.30
2017-12-29T10:58:50.141Z,68.10
2017-12-29T11:01:18.035Z,68.00
2017-12-29T11:03:45.942Z,68.10
2017-12-29T11:06:13.832Z,67.80
2017-12-29T11:08:41.768Z,67.20
2017-12-29T11:11:09.265Z,66.30
2017-12-29T11:13:36.774Z,66.10
2017-12-29T11:16:05.031Z,65.20
2017-12-29T11:18:32.554Z,65.50
2017-12-29T11:21:00.066Z,65.60
2017-12-29T11:23:28.005Z,64.30
2017-12-29T11:25:56.272Z,64.90
2017-12-29T11:28:23.798Z,65.10
2017-12-29T11:30:51.297Z,65.20
2017-12-29T11:33:19.582Z,64.60
2017-12-29T11:35:47.092Z,63.80
2017-12-29T11:38:14.606Z,64.30
2017-12-29T11:40:42.111Z,65.50
2017-12-29T11:43:09.624Z,67.40
2017-12-29T11:45:37.123Z,69.10
2017-12-29T11:48:05.026Z,70.60
2017-12-29T11:50:33.299Z,71.60
2017-12-29T11:53:01.209Z,72.10
2017-12-29T11:55:29.470Z,72.90
2017-12-29T11:57:57.746Z,73.80
2017-12-29T12:00:25.644Z,74.00
2017-12-29T12:02:53.554Z,74.60
2017-12-29T12:05:21.451Z,74.90
2017-12-29T12:07:49.009Z,75.20
2017-12-29T12:10:16.502Z,75.50
2017-12-29T12:12:44.026Z,76.00
2017-12-29T12:15:11.930Z,76.20
2017-12-29T12:17:39.838Z,76.80
2017-12-29T12:20:08.106Z,76.80
2017-12-29T12:22:35.629Z,77.00
2017-12-29T12:25:03.154Z,77.10
2017-12-29T12:27:31.054Z,77.10
2017-12-29T12:29:58.582Z,77.50
2017-12-29T12:32:26.087Z,77.50
2017-12-29T12:34:53.606Z,77.30
2017-12-29T12:37:21.501Z,77.50
2017-12-29T12:39:49.410Z,77.70
2017-12-29T12:42:16.898Z,77.80
2017-12-29T12:44:44.431Z,77.80
2017-12-29T12:47:11.942Z,78.00
2017-12-29T12:49:39.467Z,78.00
2017-12-29T12:52:07.373Z,77.80
2017-12-29T12:54:35.291Z,78.00
2017-12-29T12:57:03.179Z,78.20
2017-12-29T12:59:31.560Z,78.40
2017-12-29T13:01:59.055Z,78.20
2017-12-29T13:04:27.286Z,78.10
2017-12-29T13:06:54.887Z,78.20
2017-12-29T13:09:22.407Z,78.10
2017-12-29T13:11:49.899Z,78.20
2017-12-29T13:14:17.423Z,78.40
2017-12-29T13:16:44.927Z,78.10
2017-12-29T13:19:12.856Z,78.00
2017-12-29T13:21:40.358Z,78.10
2017-12-29T13:24:08.278Z,78.40
2017-12-29T13:26:36.190Z,78.10
2017-12-29T13:29:03.706Z,78.50
2017-12-29T13:31:31.605Z,78.50
2017-12-29T13:33:59.514Z,78.50
2017-12-29T13:36:28.511Z,78.40
2017-12-29T13:38:56.570Z,78.70
2017-12-29T13:41:24.161Z,78.60
2017-12-29T13:43:51.674Z,78.50
2017-12-29T13:46:19.638Z,78.70
2017-12-29T13:48:47.540Z,78.70
2017-12-29T13:51:15.051Z,78.80
2017-12-29T13:53:43.329Z,78.80
2017-12-29T13:56:10.855Z,78.40
2017-12-29T13:58:39.131Z,78.30
2017-12-29T14:01:07.043Z,78.20
2017-12-29T14:03:34.533Z,78.10
2017-12-29T14:06:02.064Z,78.20
2017-12-29T14:08:29.551Z,78.20
2017-12-29T14:10:57.447Z,78.10
2017-12-29T14:13:25.420Z,78.40
2017-12-29T14:15:53.315Z,78.40
2017-12-29T14:18:21.227Z,78.30
2017-12-29T14:20:48.790Z,78.30
2017-12-29T14:23:16.694Z,78.30
2017-12-29T14:25:45.671Z,78.20
2017-12-29T14:28:13.205Z,78.30
2017-12-29T14:30:41.095Z,78.20
2017-12-29T14:33:09.006Z,78.30
2017-12-29T14:35:36.911Z,78.40
2017-12-29T14:38:04.426Z,78.50
2017-12-29T14:40:32.332Z,78.50
2017-12-29T14:42:59.826Z,78.20
2017-12-29T14:45:27.759Z,78.20
2017-12-29T14:47:55.246Z,78.40
2017-12-29T14:50:22.814Z,78.40
2017-12-29T14:52:50.716Z,78.30
2017-12-29T14:55:19.092Z,78.20
2017-12-29T14:57:47.361Z,78.20
2017-12-29T15:00:15.275Z,78.20
2017-12-29T15:02:43.581Z,78.10
2017-12-29T15:05:11.539Z,78.50
2017-12-29T15:07:39.038Z,78.90
2017-12-29T15:10:06.559Z,79.40
2017-12-29T15:12:34.467Z,79.60
2017-12-29T15:15:02.020Z,79.80
2017-12-29T15:17:29.558Z,79.90
2017-12-29T15:19:57.070Z,80.00
2017-12-29T15:22:24.629Z,80.10
2017-12-29T15:24:52.531Z,80.20
2017-12-29T15:27:20.064Z,80.50
2017-12-29T15:29:47.558Z,80.50
2017-12-29T15:32:15.121Z,80.60
2017-12-29T15:34:43.060Z,80.80
2017-12-29T15:37:10.628Z,80.90
2017-12-29T15:39:38.952Z,81.00
2017-12-29T15:42:06.473Z,81.40
2017-12-29T15:44:34.017Z,81.50
2017-12-29T15:47:01.938Z,81.50
2017-12-29T15:49:29.434Z,81.40
2017-12-29T15:51:56.992Z,81.40
2017-12-29T15:54:25.306Z,81.50
2017-12-29T15:56:53.230Z,81.60
2017-12-29T15:59:21.176Z,81.90
2017-12-29T16:01:51.480Z,82.00
2017-12-29T16:04:19.370Z,82.10
2017-12-29T16:06:47.686Z,82.10
2017-12-29T16:09:16.361Z,82.30
2017-12-29T16:11:43.879Z,82.40
2017-12-29T16:14:11.370Z,82.50
2017-12-29T16:16:38.922Z,82.70
2017-12-29T16:19:06.871Z,82.70
2017-12-29T16:21:35.209Z,82.60
2017-12-29T16:24:03.180Z,82.60
2017-12-29T16:26:31.125Z,82.30
2017-12-29T16:28:59.090Z,82.40
2017-12-29T16:31:26.632Z,82.80
2017-12-29T16:33:54.590Z,83.10
2017-12-29T16:36:22.143Z,83.40
2017-12-29T16:38:50.055Z,83.40
2017-12-29T16:41:17.580Z,83.40
2017-12-29T16:43:45.866Z,83.30
2017-12-29T16:46:13.768Z,83.30
2017-12-29T16:48:41.724Z,83.30
2017-12-29T16:51:09.264Z,83.20
2017-12-29T16:53:37.179Z,83.20
2017-12-29T16:56:04.674Z,83.00
2017-12-29T16:58:32.704Z,82.90
2017-12-29T17:01:00.202Z,82.90
2017-12-29T17:03:28.111Z,83.00
2017-12-29T17:05:56.044Z,83.00
2017-12-29T17:08:23.598Z,82.50
2017-12-29T17:10:51.536Z,82.30
2017-12-29T17:13:19.063Z,82.40
2017-12-29T17:15:47.343Z,82.70
2017-12-29T17:18:15.305Z,82.70
2017-12-29T17:20:43.241Z,82.70
2017-12-29T17:23:12.262Z,82.80
2017-12-29T17:25:40.191Z,82.80
2017-12-29T17:28:08.111Z,82.80
2017-12-29T17:30:36.014Z,82.80
2017-12-29T17:33:03.980Z,82.60
2017-12-29T17:35:32.261Z,82.60
2017-12-29T17:37:59.812Z,82.70
2017-12-29T17:40:27.706Z,82.40
2017-12-29T17:42:55.686Z,82.30
2017-12-29T17:45:23.242Z,82.30
2017-12-29T17:47:50.808Z,82.10
2017-12-29T17:50:18.302Z,82.00
2017-12-29T17:52:45.856Z,82.00
2017-12-29T17:55:13.949Z,82.00
2017-12-29T17:57:42.016Z,82.00
2017-12-29T18:00:09.560Z,82.10
2017-12-29T18:02:37.133Z,82.10
2017-12-29T18:05:05.068Z,81.90
2017-12-29T18:07:32.632Z,81.90
2017-12-29T18:10:00.176Z,82.30
2017-12-29T18:12:28.106Z,82.40
2017-12-29T18:14:55.603Z,82.40
2017-12-29T18:17:23.173Z,82.50
2017-12-29T18:19:51.483Z,82.50
2017-12-29T18:22:19.404Z,82.60
2017-12-29T18:24:46.902Z,82.50
2017-12-29T18:27:14.456Z,82.50
2017-12-29T18:29:41.955Z,82.30
2017-12-29T18:32:10.608Z,82.50
2017-12-29T18:34:38.912Z,82.60
2017-12-29T18:37:06.468Z,82.40
2017-12-29T18:39:34.742Z,82.40
2017-12-29T18:42:03.380Z,82.40
2017-12-29T18:44:31.339Z,82.30
2017-12-29T18:46:58.899Z,82.40
2017-12-29T18:49:26.831Z,82.60
2017-12-29T18:51:54.394Z,82.40
2017-12-29T18:54:22.741Z,82.50
2017-12-29T18:56:50.656Z,82.30
2017-12-29T18:59:18.613Z,82.10
2017-12-29T19:01:46.164Z,82.10
2017-12-29T19:04:14.531Z,82.50
2017-12-29T19:06:42.057Z,82.60
2017-12-29T19:09:09.966Z,82.70
2017-12-29T19:11:38.286Z,82.60
2017-12-29T19:14:05.857Z,82.60
2017-12-29T19:16:33.797Z,82.60
2017-12-29T19:19:01.376Z,82.60
2017-12-29T19:21:29.274Z,82.70
2017-12-29T19:23:56.854Z,82.80
2017-12-29T19:26:24.410Z,83.00
2017-12-29T19:28:53.689Z,83.00
2017-12-29T19:31:21.178Z,83.10
2017-12-29T19:33:48.750Z,83.10
2017-12-29T19:36:16.694Z,83.10
2017-12-29T19:38:44.645Z,83.20
2017-12-29T19:41:12.602Z,83.40
2017-12-29T19:43:40.174Z,83.50
2017-12-29T19:46:08.116Z,83.70
2017-12-29T19:48:35.695Z,83.80
2017-12-29T19:51:03.599Z,83.90
2017-12-29T19:53:31.514Z,84.00
2017-12-29T19:55:59.068Z,84.00
2017-12-29T19:58:26.650Z,83.90
2017-12-29T20:00:54.602Z,83.90
2017-12-29T20:03:22.951Z,83.70
2017-12-29T20:05:51.258Z,83.50
2017-12-29T20:08:18.833Z,83.40
2017-12-29T20:10:46.784Z,83.20
2017-12-29T20:13:14.362Z,83.10
2017-12-29T20:15:42.314Z,83.10
2017-12-29T20:18:09.885Z,83.10
2017-12-29T20:20:37.843Z,83.40
2017-12-29T20:23:05.450Z,83.50
2017-12-29T20:25:33.384Z,83.20
2017-12-29T20:28:01.346Z,83.10
2017-12-29T20:30:29.286Z,82.90
2017-12-29T20:32:56.867Z,83.40
2017-12-29T20:35:24.807Z,83.70
2017-12-29T20:37:52.400Z,83.70
2017-12-29T20:40:20.365Z,83.40
2017-12-29T20:42:47.925Z,83.80
2017-12-29T20:45:15.951Z,84.10
2017-12-29T20:47:44.242Z,84.20
2017-12-29T20:50:12.222Z,84.30
2017-12-29T20:52:40.169Z,84.40
2017-12-29T20:55:08.137Z,84.20
2017-12-29T20:57:35.703Z,84.10
2017-12-29T21:00:03.678Z,84.20
2017-12-29T21:02:31.617Z,84.50
2017-12-29T21:04:59.217Z,84.90
2017-12-29T21:07:26.875Z,85.10
2017-12-29T21:09:54.433Z,85.30
2017-12-29T21:12:21.999Z,85.90
2017-12-29T21:14:49.944Z,85.90
2017-12-29T21:17:17.521Z,86.20
2017-12-29T21:19:45.078Z,86.30
2017-12-29T21:22:13.410Z,86.50
2017-12-29T21:24:41.364Z,86.60
2017-12-29T21:27:09.331Z,86.90
2017-12-29T21:29:37.269Z,87.10
2017-12-29T21:32:04.856Z,87.20
2017-12-29T21:34:32.797Z,87.50
2017-12-29T21:37:00.353Z,87.70
2017-12-29T21:39:28.326Z,87.70
2017-12-29T21:41:55.882Z,87.70
2017-12-29T21:44:23.453Z,88.00
2017-12-29T21:46:51.789Z,88.10
2017-12-29T21:49:19.363Z,88.10
2017-12-29T21:51:47.318Z,88.00
2017-12-29T21:54:14.890Z,87.80
2017-12-29T21:56:42.438Z,88.00
2017-12-29T21:59:10.417Z,87.80
2017-12-29T22:01:37.965Z,87.80
2017-12-29T22:04:06.308Z,87.80
2017-12-29T22:06:33.853Z,87.80
2017-12-29T22:09:01.806Z,88.00
2017-12-29T22:11:29.396Z,88.10
2017-12-29T22:13:57.354Z,88.30
2017-12-29T22:16:24.934Z,88.30
2017-12-29T22:18:52.878Z,88.40
2017-12-29T22:21:20.844Z,88.30
2017-12-29T22:23:48.806Z,88.20
2017-12-29T22:26:16.370Z,88.30
2017-12-29T22:28:45.050Z,88.40
2017-12-29T22:31:13.389Z,88.30
2017-12-29T22:33:41.342Z,88.40
2017-12-29T22:36:09.313Z,88.40
2017-12-29T22:38:36.862Z,88.50
2017-12-29T22:41:04.813Z,88.70
2017-12-29T22:43:32.389Z,88.70
2017-12-29T22:46:00.341Z,88.90
2017-12-29T22:48:28.669Z,88.90
2017-12-29T22:50:56.210Z,89.10
2017-12-29T22:53:24.171Z,89.40
2017-12-29T22:55:52.106Z,89.50
2017-12-29T22:58:20.447Z,89.60
2017-12-29T23:00:48.401Z,89.60
2017-12-29T23:03:15.961Z,89.40
2017-12-29T23:05:44.641Z,89.50
2017-12-29T23:08:12.204Z,89.50
2017-12-29T23:10:39.751Z,89.50
2017-12-29T23:13:08.090Z,89.60
2017-12-29T23:15:36.402Z,89.60
2017-12-29T23:18:04.341Z,89.80
2017-12-29T23:20:31.923Z,89.90
2017-12-29T23:22:59.484Z,90.10
2017-12-29T23:25:27.050Z,90.20
2017-12-29T23:27:54.986Z,90.30
2017-12-29T23:30:22.540Z,90.40
2017-12-29T23:32:50.473Z,90.50
2017-12-29T23:35:18.028Z,90.60
2017-12-29T23:37:46.351Z,90.50
2017-12-29T23:40:14.318Z,90.60
2017-12-29T23:42:41.847Z,90.70
2017-12-29T23:45:09.413Z,90.80
2017-12-29T23:47:37.347Z,90.70
2017-12-29T23:50:05.684Z,90.60
2017-12-29T23:52:33.642Z,90.60
2017-12-29T23:55:01.196Z,90.60
2017-12-29T23:57:28.762Z,90.60
2017-12-29T23:59:56.292Z,90.60
